sensor_id;sensor_type;location;lat;lon;timestamp;P1;P2;P0
56495;PMS5003;42804;55.762;38.084;2022-07-11T00:01:25;30.50;28.25;19.25
56495;PMS5003;42804;55.762;38.084;2022-07-11T00:03:53;26.25;24.00;17.75
56495;PMS5003;42804;55.762;38.084;2022-07-11T00:06:21;21.25;21.25;15.75
56495;PMS5003;42804;55.762;38.084;2022-07-11T00:08:49;23.50;22.50;17.50
56495;PMS5003;42804;55.762;38.084;2022-07-11T00:11:17;20.00;20.00;14.75
56495;PMS5003;42804;55.762;38.084;2022-07-11T00:13:46;28.00;24.75;20.50
56495;PMS5003;42804;55.762;38.084;2022-07-11T00:16:14;24.00;24.00;17.25
56495;PMS5003;42804;55.762;38.084;2022-07-11T00:18:43;22.00;22.00;15.25
56495;PMS5003;42804;55.762;38.084;2022-07-11T00:21:12;22.25;22.25;16.00
56495;PMS5003;42804;55.762;38.084;2022-07-11T00:23:40;18.00;17.00;15.00
56495;PMS5003;42804;55.762;38.084;2022-07-11T00:26:09;24.00;24.00;18.50
56495;PMS5003;42804;55.762;38.084;2022-07-11T00:28:37;22.25;21.75;17.50
56495;PMS5003;42804;55.762;38.084;2022-07-11T00:31:05;21.50;21.00;16.25
56495;PMS5003;42804;55.762;38.084;2022-07-11T00:33:35;25.25;23.50;17.00
56495;PMS5003;42804;55.762;38.084;2022-07-11T00:36:06;23.00;23.00;16.75
56495;PMS5003;42804;55.762;38.084;2022-07-11T00:38:34;22.50;21.75;17.00
56495;PMS5003;42804;55.762;38.084;2022-07-11T00:41:03;20.50;20.50;16.25
56495;PMS5003;42804;55.762;38.084;2022-07-11T00:43:31;21.50;20.75;12.50
56495;PMS5003;42804;55.762;38.084;2022-07-11T00:46:00;22.75;22.75;16.25
56495;PMS5003;42804;55.762;38.084;2022-07-11T00:48:28;22.50;21.25;15.00
56495;PMS5003;42804;55.762;38.084;2022-07-11T00:50:56;21.50;21.25;15.25
56495;PMS5003;42804;55.762;38.084;2022-07-11T00:53:26;19.00;19.00;15.25
56495;PMS5003;42804;55.762;38.084;2022-07-11T00:55:54;21.50;19.00;15.00
56495;PMS5003;42804;55.762;38.084;2022-07-11T00:58:23;21.75;21.50;15.75
56495;PMS5003;42804;55.762;38.084;2022-07-11T01:00:51;23.50;23.50;18.00
56495;PMS5003;42804;55.762;38.084;2022-07-11T01:03:19;26.25;24.00;16.00
56495;PMS5003;42804;55.762;38.084;2022-07-11T01:05:48;23.75;22.50;17.75
56495;PMS5003;42804;55.762;38.084;2022-07-11T01:08:16;23.00;22.25;17.50
56495;PMS5003;42804;55.762;38.084;2022-07-11T01:10:45;25.50;24.75;17.50
56495;PMS5003;42804;55.762;38.084;2022-07-11T01:13:14;20.75;20.75;16.00
56495;PMS5003;42804;55.762;38.084;2022-07-11T01:15:42;24.00;23.75;18.25
56495;PMS5003;42804;55.762;38.084;2022-07-11T01:18:10;23.50;23.50;17.75
56495;PMS5003;42804;55.762;38.084;2022-07-11T01:20:38;23.75;23.00;19.00
56495;PMS5003;42804;55.762;38.084;2022-07-11T01:23:08;24.25;23.25;18.00
56495;PMS5003;42804;55.762;38.084;2022-07-11T01:25:37;17.00;16.00;11.50
56495;PMS5003;42804;55.762;38.084;2022-07-11T01:28:05;26.25;26.00;17.75
56495;PMS5003;42804;55.762;38.084;2022-07-11T01:30:34;19.25;19.25;16.00
56495;PMS5003;42804;55.762;38.084;2022-07-11T01:33:02;16.25;16.25;10.50
56495;PMS5003;42804;55.762;38.084;2022-07-11T01:35:30;20.25;20.25;14.50
56495;PMS5003;42804;55.762;38.084;2022-07-11T01:37:59;20.50;19.00;15.25
56495;PMS5003;42804;55.762;38.084;2022-07-11T01:40:30;21.00;21.00;16.00
56495;PMS5003;42804;55.762;38.084;2022-07-11T01:42:58;21.00;20.25;14.75
56495;PMS5003;42804;55.762;38.084;2022-07-11T01:45:27;22.00;22.00;15.50
56495;PMS5003;42804;55.762;38.084;2022-07-11T01:47:55;19.75;19.75;14.50
56495;PMS5003;42804;55.762;38.084;2022-07-11T01:50:23;23.00;21.00;15.50
56495;PMS5003;42804;55.762;38.084;2022-07-11T01:52:52;17.75;17.75;14.50
56495;PMS5003;42804;55.762;38.084;2022-07-11T01:55:20;22.50;22.50;16.75
56495;PMS5003;42804;55.762;38.084;2022-07-11T01:57:49;19.75;19.75;14.25
56495;PMS5003;42804;55.762;38.084;2022-07-11T02:00:17;22.75;22.00;15.75
56495;PMS5003;42804;55.762;38.084;2022-07-11T02:02:46;21.25;20.75;16.00
56495;PMS5003;42804;55.762;38.084;2022-07-11T02:05:14;20.50;20.00;15.25
56495;PMS5003;42804;55.762;38.084;2022-07-11T02:07:42;19.50;19.50;15.00
56495;PMS5003;42804;55.762;38.084;2022-07-11T02:10:28;18.25;17.75;13.00
56495;PMS5003;42804;55.762;38.084;2022-07-11T02:12:58;19.00;19.00;15.00
56495;PMS5003;42804;55.762;38.084;2022-07-11T02:15:26;21.25;20.75;13.75
56495;PMS5003;42804;55.762;38.084;2022-07-11T02:17:54;19.25;19.25;14.75
56495;PMS5003;42804;55.762;38.084;2022-07-11T02:20:23;21.50;21.00;14.50
56495;PMS5003;42804;55.762;38.084;2022-07-11T02:22:51;19.25;18.25;14.25
56495;PMS5003;42804;55.762;38.084;2022-07-11T02:25:19;19.00;17.75;13.00
56495;PMS5003;42804;55.762;38.084;2022-07-11T02:27:49;19.25;19.00;14.00
56495;PMS5003;42804;55.762;38.084;2022-07-11T02:30:19;20.00;20.00;15.25
56495;PMS5003;42804;55.762;38.084;2022-07-11T02:32:47;21.00;20.25;14.75
56495;PMS5003;42804;55.762;38.084;2022-07-11T02:35:16;14.75;14.25;11.25
56495;PMS5003;42804;55.762;38.084;2022-07-11T02:37:44;19.00;18.50;15.00
56495;PMS5003;42804;55.762;38.084;2022-07-11T02:40:12;15.50;15.50;12.25
56495;PMS5003;42804;55.762;38.084;2022-07-11T02:42:41;18.50;18.25;15.50
56495;PMS5003;42804;55.762;38.084;2022-07-11T02:45:09;17.00;16.75;12.75
56495;PMS5003;42804;55.762;38.084;2022-07-11T02:47:39;19.00;19.00;14.75
56495;PMS5003;42804;55.762;38.084;2022-07-11T02:50:08;16.25;16.00;13.25
56495;PMS5003;42804;55.762;38.084;2022-07-11T02:52:38;21.50;19.50;15.50
56495;PMS5003;42804;55.762;38.084;2022-07-11T02:55:07;18.00;18.00;14.00
56495;PMS5003;42804;55.762;38.084;2022-07-11T02:57:36;18.00;18.00;14.25
56495;PMS5003;42804;55.762;38.084;2022-07-11T03:00:06;20.75;19.50;15.00
56495;PMS5003;42804;55.762;38.084;2022-07-11T03:02:35;14.75;14.75;11.00
56495;PMS5003;42804;55.762;38.084;2022-07-11T03:05:05;13.00;13.00;9.75
56495;PMS5003;42804;55.762;38.084;2022-07-11T03:07:34;18.50;18.25;14.00
56495;PMS5003;42804;55.762;38.084;2022-07-11T03:10:02;12.50;12.00;7.75
56495;PMS5003;42804;55.762;38.084;2022-07-11T03:12:30;17.00;16.00;13.50
56495;PMS5003;42804;55.762;38.084;2022-07-11T03:14:59;21.25;20.25;16.00
56495;PMS5003;42804;55.762;38.084;2022-07-11T03:17:29;16.25;16.25;13.25
56495;PMS5003;42804;55.762;38.084;2022-07-11T03:19:57;19.00;19.00;15.50
56495;PMS5003;42804;55.762;38.084;2022-07-11T03:22:31;19.75;18.50;13.50
56495;PMS5003;42804;55.762;38.084;2022-07-11T03:24:59;17.50;17.50;14.00
56495;PMS5003;42804;55.762;38.084;2022-07-11T03:27:30;23.75;19.50;15.50
56495;PMS5003;42804;55.762;38.084;2022-07-11T03:29:58;14.00;13.50;8.00
56495;PMS5003;42804;55.762;38.084;2022-07-11T03:32:26;16.00;16.00;12.50
56495;PMS5003;42804;55.762;38.084;2022-07-11T03:34:55;18.00;17.25;12.75
56495;PMS5003;42804;55.762;38.084;2022-07-11T03:37:42;14.25;14.25;10.50
56495;PMS5003;42804;55.762;38.084;2022-07-11T03:40:10;19.25;19.25;14.75
56495;PMS5003;42804;55.762;38.084;2022-07-11T03:42:38;18.75;17.75;13.00
56495;PMS5003;42804;55.762;38.084;2022-07-11T03:45:07;17.25;17.25;12.75
56495;PMS5003;42804;55.762;38.084;2022-07-11T03:47:35;18.00;18.00;14.00
56495;PMS5003;42804;55.762;38.084;2022-07-11T03:50:05;18.50;18.50;15.00
56495;PMS5003;42804;55.762;38.084;2022-07-11T03:52:34;14.50;13.50;11.50
56495;PMS5003;42804;55.762;38.084;2022-07-11T03:55:04;18.00;18.00;14.50
56495;PMS5003;42804;55.762;38.084;2022-07-11T03:57:32;16.25;16.25;12.00
56495;PMS5003;42804;55.762;38.084;2022-07-11T04:00:02;15.75;15.75;13.25
56495;PMS5003;42804;55.762;38.084;2022-07-11T04:02:32;18.25;17.25;14.75
56495;PMS5003;42804;55.762;38.084;2022-07-11T04:05:00;17.75;17.25;13.75
56495;PMS5003;42804;55.762;38.084;2022-07-11T04:07:29;22.75;21.75;17.75
56495;PMS5003;42804;55.762;38.084;2022-07-11T04:09:57;18.25;17.50;13.75
56495;PMS5003;42804;55.762;38.084;2022-07-11T04:12:27;16.75;15.75;13.75
56495;PMS5003;42804;55.762;38.084;2022-07-11T04:14:55;22.00;21.00;16.50
56495;PMS5003;42804;55.762;38.084;2022-07-11T04:17:23;18.75;18.25;14.00
56495;PMS5003;42804;55.762;38.084;2022-07-11T04:19:53;18.00;17.00;13.00
56495;PMS5003;42804;55.762;38.084;2022-07-11T04:22:21;18.00;18.00;14.50
56495;PMS5003;42804;55.762;38.084;2022-07-11T04:24:49;19.25;19.25;14.50
56495;PMS5003;42804;55.762;38.084;2022-07-11T04:27:18;15.50;15.00;12.50
56495;PMS5003;42804;55.762;38.084;2022-07-11T04:29:50;15.50;14.75;11.25
56495;PMS5003;42804;55.762;38.084;2022-07-11T04:32:18;5.00;5.00;3.25
56495;PMS5003;42804;55.762;38.084;2022-07-11T04:34:46;18.00;18.00;14.50
56495;PMS5003;42804;55.762;38.084;2022-07-11T04:37:15;16.75;16.50;13.50
56495;PMS5003;42804;55.762;38.084;2022-07-11T04:39:43;19.75;19.00;15.00
56495;PMS5003;42804;55.762;38.084;2022-07-11T04:42:13;16.75;16.75;12.75
56495;PMS5003;42804;55.762;38.084;2022-07-11T04:44:41;18.00;17.25;12.75
56495;PMS5003;42804;55.762;38.084;2022-07-11T04:47:11;21.00;20.00;15.25
56495;PMS5003;42804;55.762;38.084;2022-07-11T04:49:39;16.25;16.00;11.50
56495;PMS5003;42804;55.762;38.084;2022-07-11T04:52:07;21.25;20.25;15.75
56495;PMS5003;42804;55.762;38.084;2022-07-11T04:54:36;18.50;18.50;15.00
56495;PMS5003;42804;55.762;38.084;2022-07-11T04:57:04;18.25;18.25;14.75
56495;PMS5003;42804;55.762;38.084;2022-07-11T04:59:33;18.50;18.50;14.75
56495;PMS5003;42804;55.762;38.084;2022-07-11T05:02:01;16.75;16.50;13.00
56495;PMS5003;42804;55.762;38.084;2022-07-11T05:04:32;19.00;19.00;14.00
56495;PMS5003;42804;55.762;38.084;2022-07-11T05:07:00;19.00;18.75;14.00
56495;PMS5003;42804;55.762;38.084;2022-07-11T05:09:28;19.50;18.75;15.00
56495;PMS5003;42804;55.762;38.084;2022-07-11T05:11:57;20.25;20.25;15.50
56495;PMS5003;42804;55.762;38.084;2022-07-11T05:14:25;20.75;19.50;15.75
56495;PMS5003;42804;55.762;38.084;2022-07-11T05:16:53;19.25;18.75;15.00
56495;PMS5003;42804;55.762;38.084;2022-07-11T05:19:22;19.25;19.00;14.50
56495;PMS5003;42804;55.762;38.084;2022-07-11T05:21:51;16.00;15.00;10.25
56495;PMS5003;42804;55.762;38.084;2022-07-11T05:24:19;16.00;15.50;12.00
56495;PMS5003;42804;55.762;38.084;2022-07-11T05:26:48;21.00;21.00;16.75
56495;PMS5003;42804;55.762;38.084;2022-07-11T05:29:16;18.50;18.50;14.00
56495;PMS5003;42804;55.762;38.084;2022-07-11T05:31:44;15.00;14.50;11.50
56495;PMS5003;42804;55.762;38.084;2022-07-11T05:34:17;21.00;21.00;16.00
56495;PMS5003;42804;55.762;38.084;2022-07-11T05:36:46;19.00;19.00;15.50
56495;PMS5003;42804;55.762;38.084;2022-07-11T05:39:17;19.50;18.75;15.00
56495;PMS5003;42804;55.762;38.084;2022-07-11T05:41:46;15.25;15.25;11.00
56495;PMS5003;42804;55.762;38.084;2022-07-11T05:44:17;19.00;19.00;14.50
56495;PMS5003;42804;55.762;38.084;2022-07-11T05:46:46;19.00;18.00;14.50
56495;PMS5003;42804;55.762;38.084;2022-07-11T05:49:14;20.25;19.75;15.75
56495;PMS5003;42804;55.762;38.084;2022-07-11T05:51:42;17.00;16.75;14.50
56495;PMS5003;42804;55.762;38.084;2022-07-11T05:54:11;19.75;19.75;15.00
56495;PMS5003;42804;55.762;38.084;2022-07-11T05:56:40;21.00;19.50;14.25
56495;PMS5003;42804;55.762;38.084;2022-07-11T05:59:08;21.25;20.75;15.00
56495;PMS5003;42804;55.762;38.084;2022-07-11T06:01:37;22.75;21.25;16.75
56495;PMS5003;42804;55.762;38.084;2022-07-11T06:04:05;18.00;17.33;13.67
56495;PMS5003;42804;55.762;38.084;2022-07-11T06:06:34;20.25;20.00;16.50
56495;PMS5003;42804;55.762;38.084;2022-07-11T06:09:02;20.75;19.75;15.00
56495;PMS5003;42804;55.762;38.084;2022-07-11T06:11:31;17.25;17.25;15.00
56495;PMS5003;42804;55.762;38.084;2022-07-11T06:14:01;20.25;20.00;16.00
56495;PMS5003;42804;55.762;38.084;2022-07-11T06:16:29;22.00;22.00;18.00
56495;PMS5003;42804;55.762;38.084;2022-07-11T06:18:57;14.00;14.00;13.00
56495;PMS5003;42804;55.762;38.084;2022-07-11T06:21:26;20.00;20.00;15.00
56495;PMS5003;42804;55.762;38.084;2022-07-11T06:23:55;21.00;21.00;16.00
56495;PMS5003;42804;55.762;38.084;2022-07-11T06:26:27;18.25;18.25;14.75
56495;PMS5003;42804;55.762;38.084;2022-07-11T06:28:55;20.75;20.25;15.25
56495;PMS5003;42804;55.762;38.084;2022-07-11T06:31:25;18.50;18.50;15.00
56495;PMS5003;42804;55.762;38.084;2022-07-11T06:33:54;20.75;20.50;14.50
56495;PMS5003;42804;55.762;38.084;2022-07-11T06:36:24;17.75;17.25;14.25
56495;PMS5003;42804;55.762;38.084;2022-07-11T06:38:53;21.75;21.25;15.75
56495;PMS5003;42804;55.762;38.084;2022-07-11T06:41:24;19.25;18.25;15.00
56495;PMS5003;42804;55.762;38.084;2022-07-11T06:43:53;17.75;17.50;13.00
56495;PMS5003;42804;55.762;38.084;2022-07-11T06:46:21;19.00;19.00;13.50
56495;PMS5003;42804;55.762;38.084;2022-07-11T06:48:51;18.75;18.50;14.25
56495;PMS5003;42804;55.762;38.084;2022-07-11T06:51:22;19.00;18.75;15.25
56495;PMS5003;42804;55.762;38.084;2022-07-11T06:53:51;20.00;19.75;15.00
56495;PMS5003;42804;55.762;38.084;2022-07-11T06:56:19;20.75;20.75;16.50
56495;PMS5003;42804;55.762;38.084;2022-07-11T06:58:47;18.75;18.50;13.25
56495;PMS5003;42804;55.762;38.084;2022-07-11T07:01:16;15.25;15.25;11.50
56495;PMS5003;42804;55.762;38.084;2022-07-11T07:03:45;19.50;19.25;15.25
56495;PMS5003;42804;55.762;38.084;2022-07-11T07:06:16;19.00;19.00;15.75
56495;PMS5003;42804;55.762;38.084;2022-07-11T07:08:44;16.75;16.75;13.75
56495;PMS5003;42804;55.762;38.084;2022-07-11T07:11:12;17.25;17.25;13.75
56495;PMS5003;42804;55.762;38.084;2022-07-11T07:13:40;16.75;16.75;13.25
56495;PMS5003;42804;55.762;38.084;2022-07-11T07:16:09;18.50;18.25;14.75
56495;PMS5003;42804;55.762;38.084;2022-07-11T07:18:37;20.00;18.00;14.00
56495;PMS5003;42804;55.762;38.084;2022-07-11T07:21:09;18.75;18.75;15.50
56495;PMS5003;42804;55.762;38.084;2022-07-11T07:23:38;15.50;15.00;12.00
56495;PMS5003;42804;55.762;38.084;2022-07-11T07:26:07;15.25;14.00;11.25
56495;PMS5003;42804;55.762;38.084;2022-07-11T07:28:35;17.50;17.50;13.00
56495;PMS5003;42804;55.762;38.084;2022-07-11T07:31:05;14.75;14.25;10.50
56495;PMS5003;42804;55.762;38.084;2022-07-11T07:33:41;19.50;18.50;16.25
56495;PMS5003;42804;55.762;38.084;2022-07-11T07:36:12;17.25;17.25;13.00
56495;PMS5003;42804;55.762;38.084;2022-07-11T07:38:42;15.75;15.25;12.75
56495;PMS5003;42804;55.762;38.084;2022-07-11T07:41:14;17.50;17.50;15.00
56495;PMS5003;42804;55.762;38.084;2022-07-11T07:43:42;16.50;16.50;13.75
56495;PMS5003;42804;55.762;38.084;2022-07-11T07:46:10;16.25;16.25;13.00
56495;PMS5003;42804;55.762;38.084;2022-07-11T07:48:40;17.25;17.00;13.25
56495;PMS5003;42804;55.762;38.084;2022-07-11T07:51:08;16.75;16.25;13.00
56495;PMS5003;42804;55.762;38.084;2022-07-11T07:53:36;14.00;14.00;11.75
56495;PMS5003;42804;55.762;38.084;2022-07-11T07:56:06;14.25;14.25;10.75
56495;PMS5003;42804;55.762;38.084;2022-07-11T07:58:34;16.00;16.00;12.75
56495;PMS5003;42804;55.762;38.084;2022-07-11T08:01:03;18.25;18.00;13.50
56495;PMS5003;42804;55.762;38.084;2022-07-11T08:03:48;10.50;10.50;8.75
56495;PMS5003;42804;55.762;38.084;2022-07-11T08:06:17;16.50;16.00;12.50
56495;PMS5003;42804;55.762;38.084;2022-07-11T08:08:45;13.00;13.00;11.00
56495;PMS5003;42804;55.762;38.084;2022-07-11T08:11:15;13.00;13.00;10.00
56495;PMS5003;42804;55.762;38.084;2022-07-11T08:13:59;16.00;16.00;11.75
56495;PMS5003;42804;55.762;38.084;2022-07-11T08:16:27;17.75;17.00;13.00
56495;PMS5003;42804;55.762;38.084;2022-07-11T08:18:58;15.50;15.50;12.75
56495;PMS5003;42804;55.762;38.084;2022-07-11T08:21:27;11.25;11.25;9.25
56495;PMS5003;42804;55.762;38.084;2022-07-11T08:23:55;17.50;17.00;13.00
56495;PMS5003;42804;55.762;38.084;2022-07-11T08:26:25;18.50;16.25;13.00
56495;PMS5003;42804;55.762;38.084;2022-07-11T08:28:59;15.75;15.75;12.25
56495;PMS5003;42804;55.762;38.084;2022-07-11T08:31:27;17.75;17.25;14.25
56495;PMS5003;42804;55.762;38.084;2022-07-11T08:33:56;16.50;16.50;13.00
56495;PMS5003;42804;55.762;38.084;2022-07-11T08:36:26;13.25;13.25;10.00
56495;PMS5003;42804;55.762;38.084;2022-07-11T08:38:57;13.00;12.75;9.75
56495;PMS5003;42804;55.762;38.084;2022-07-11T08:41:27;13.75;13.75;11.50
56495;PMS5003;42804;55.762;38.084;2022-07-11T08:43:56;13.00;13.00;11.00
56495;PMS5003;42804;55.762;38.084;2022-07-11T08:46:25;14.00;14.00;11.75
56495;PMS5003;42804;55.762;38.084;2022-07-11T08:48:54;16.25;16.25;13.75
56495;PMS5003;42804;55.762;38.084;2022-07-11T08:51:22;15.50;15.50;13.00
56495;PMS5003;42804;55.762;38.084;2022-07-11T08:53:52;18.00;18.00;15.25
56495;PMS5003;42804;55.762;38.084;2022-07-11T08:56:20;19.00;19.00;15.00
56495;PMS5003;42804;55.762;38.084;2022-07-11T08:58:51;15.75;15.00;12.50
56495;PMS5003;42804;55.762;38.084;2022-07-11T09:01:25;14.00;14.00;11.75
56495;PMS5003;42804;55.762;38.084;2022-07-11T09:03:55;12.00;11.25;8.75
56495;PMS5003;42804;55.762;38.084;2022-07-11T09:06:24;15.50;15.25;12.50
56495;PMS5003;42804;55.762;38.084;2022-07-11T09:08:55;13.00;13.00;10.00
56495;PMS5003;42804;55.762;38.084;2022-07-11T09:11:24;15.25;15.25;12.25
56495;PMS5003;42804;55.762;38.084;2022-07-11T09:13:54;13.00;13.00;10.75
56495;PMS5003;42804;55.762;38.084;2022-07-11T09:16:22;15.00;15.00;11.25
56495;PMS5003;42804;55.762;38.084;2022-07-11T09:18:58;16.50;16.50;13.00
56495;PMS5003;42804;55.762;38.084;2022-07-11T09:21:27;12.00;12.00;9.00
56495;PMS5003;42804;55.762;38.084;2022-07-11T09:24:09;15.00;14.00;12.25
56495;PMS5003;42804;55.762;38.084;2022-07-11T09:26:54;17.00;16.00;12.25
56495;PMS5003;42804;55.762;38.084;2022-07-11T09:29:24;16.75;15.75;13.00
56495;PMS5003;42804;55.762;38.084;2022-07-11T09:31:54;16.00;16.00;12.50
56495;PMS5003;42804;55.762;38.084;2022-07-11T09:34:23;16.00;15.00;12.00
56495;PMS5003;42804;55.762;38.084;2022-07-11T09:36:54;14.75;14.00;11.25
56495;PMS5003;42804;55.762;38.084;2022-07-11T09:39:30;13.75;13.00;9.50
56495;PMS5003;42804;55.762;38.084;2022-07-11T09:42:01;14.50;13.50;10.25
56495;PMS5003;42804;55.762;38.084;2022-07-11T09:44:31;11.00;11.00;9.00
56495;PMS5003;42804;55.762;38.084;2022-07-11T09:47:02;10.75;10.25;8.00
56495;PMS5003;42804;55.762;38.084;2022-07-11T09:49:36;10.25;10.25;8.25
56495;PMS5003;42804;55.762;38.084;2022-07-11T09:52:09;9.75;9.50;8.00
56495;PMS5003;42804;55.762;38.084;2022-07-11T09:54:53;10.75;10.75;9.00
56495;PMS5003;42804;55.762;38.084;2022-07-11T09:57:29;9.50;8.75;6.50
56495;PMS5003;42804;55.762;38.084;2022-07-11T09:59:59;11.75;11.75;9.00
56495;PMS5003;42804;55.762;38.084;2022-07-11T10:02:31;10.50;10.25;8.25
56495;PMS5003;42804;55.762;38.084;2022-07-11T10:04:59;12.50;12.50;10.25
56495;PMS5003;42804;55.762;38.084;2022-07-11T10:07:29;11.00;10.75;8.25
56495;PMS5003;42804;55.762;38.084;2022-07-11T10:09:58;14.75;14.75;11.00
56495;PMS5003;42804;55.762;38.084;2022-07-11T10:12:29;8.75;8.75;6.75
56495;PMS5003;42804;55.762;38.084;2022-07-11T10:15:00;13.50;13.50;10.00
56495;PMS5003;42804;55.762;38.084;2022-07-11T10:17:31;11.00;10.75;8.00
56495;PMS5003;42804;55.762;38.084;2022-07-11T10:20:04;13.00;13.00;10.75
56495;PMS5003;42804;55.762;38.084;2022-07-11T10:22:37;14.00;14.00;11.00
56495;PMS5003;42804;55.762;38.084;2022-07-11T10:25:10;15.00;15.00;11.75
56495;PMS5003;42804;55.762;38.084;2022-07-11T10:27:43;12.50;12.25;11.25
56495;PMS5003;42804;55.762;38.084;2022-07-11T10:30:22;15.00;14.25;11.00
56495;PMS5003;42804;55.762;38.084;2022-07-11T10:33:09;11.25;11.25;8.25
56495;PMS5003;42804;55.762;38.084;2022-07-11T10:35:39;15.00;15.00;10.50
56495;PMS5003;42804;55.762;38.084;2022-07-11T10:38:08;14.00;13.00;11.00
56495;PMS5003;42804;55.762;38.084;2022-07-11T10:40:40;13.50;12.75;9.25
56495;PMS5003;42804;55.762;38.084;2022-07-11T10:43:11;15.50;15.25;12.00
56495;PMS5003;42804;55.762;38.084;2022-07-11T10:45:55;10.25;10.00;8.00
56495;PMS5003;42804;55.762;38.084;2022-07-11T10:48:24;12.75;12.75;9.25
56495;PMS5003;42804;55.762;38.084;2022-07-11T10:50:53;12.25;12.00;8.25
56495;PMS5003;42804;55.762;38.084;2022-07-11T10:53:23;13.25;13.25;10.75
56495;PMS5003;42804;55.762;38.084;2022-07-11T10:55:53;9.00;9.00;7.00
56495;PMS5003;42804;55.762;38.084;2022-07-11T10:58:30;14.50;14.00;10.25
56495;PMS5003;42804;55.762;38.084;2022-07-11T11:01:08;12.75;12.50;9.00
56495;PMS5003;42804;55.762;38.084;2022-07-11T11:03:38;10.25;10.25;7.25
56495;PMS5003;42804;55.762;38.084;2022-07-11T11:06:07;10.00;9.50;6.75
56495;PMS5003;42804;55.762;38.084;2022-07-11T11:08:39;10.50;10.50;8.50
56495;PMS5003;42804;55.762;38.084;2022-07-11T11:16:39;17.00;15.00;12.00
56495;PMS5003;42804;55.762;38.084;2022-07-11T11:19:08;10.00;10.00;6.00
56495;PMS5003;42804;55.762;38.084;2022-07-11T11:21:59;9.00;9.00;6.25
56495;PMS5003;42804;55.762;38.084;2022-07-11T11:24:28;11.00;10.50;7.75
56495;PMS5003;42804;55.762;38.084;2022-07-11T11:26:57;11.25;11.25;9.00
56495;PMS5003;42804;55.762;38.084;2022-07-11T11:29:26;9.50;9.00;6.00
56495;PMS5003;42804;55.762;38.084;2022-07-11T11:31:58;7.00;7.00;6.00
56495;PMS5003;42804;55.762;38.084;2022-07-11T11:34:27;7.75;7.00;5.00
56495;PMS5003;42804;55.762;38.084;2022-07-11T11:36:56;10.25;9.75;8.25
56495;PMS5003;42804;55.762;38.084;2022-07-11T11:39:26;10.00;10.00;8.00
56495;PMS5003;42804;55.762;38.084;2022-07-11T11:42:00;10.00;9.25;6.00
56495;PMS5003;42804;55.762;38.084;2022-07-11T11:44:28;9.00;9.00;7.00
56495;PMS5003;42804;55.762;38.084;2022-07-11T11:46:58;10.50;10.50;8.00
56495;PMS5003;42804;55.762;38.084;2022-07-11T11:49:26;8.20;6.00;5.00
56495;PMS5003;42804;55.762;38.084;2022-07-11T11:51:55;10.00;10.00;6.50
56495;PMS5003;42804;55.762;38.084;2022-07-11T11:54:24;11.25;10.50;8.50
56495;PMS5003;42804;55.762;38.084;2022-07-11T11:56:53;7.25;7.00;6.00
56495;PMS5003;42804;55.762;38.084;2022-07-11T11:59:28;6.00;6.00;5.25
56495;PMS5003;42804;55.762;38.084;2022-07-11T12:01:57;10.25;10.00;7.00
56495;PMS5003;42804;55.762;38.084;2022-07-11T12:04:29;6.50;6.50;5.25
56495;PMS5003;42804;55.762;38.084;2022-07-11T12:06:58;9.75;9.75;6.75
56495;PMS5003;42804;55.762;38.084;2022-07-11T12:09:27;11.75;11.50;8.50
56495;PMS5003;42804;55.762;38.084;2022-07-11T12:12:19;10.00;8.75;6.50
56495;PMS5003;42804;55.762;38.084;2022-07-11T12:15:06;11.25;11.25;8.25
56495;PMS5003;42804;55.762;38.084;2022-07-11T12:17:36;10.00;10.00;6.50
56495;PMS5003;42804;55.762;38.084;2022-07-11T12:20:05;10.75;10.75;7.00
56495;PMS5003;42804;55.762;38.084;2022-07-11T12:22:40;9.50;9.50;7.25
56495;PMS5003;42804;55.762;38.084;2022-07-11T12:25:09;10.25;9.75;6.75
56495;PMS5003;42804;55.762;38.084;2022-07-11T12:27:37;7.00;6.00;5.00
56495;PMS5003;42804;55.762;38.084;2022-07-11T12:30:06;13.25;12.00;8.00
56495;PMS5003;42804;55.762;38.084;2022-07-11T12:32:36;11.25;11.00;8.50
56495;PMS5003;42804;55.762;38.084;2022-07-11T12:35:10;11.00;11.00;8.00
56495;PMS5003;42804;55.762;38.084;2022-07-11T12:37:39;10.50;10.50;7.00
56495;PMS5003;42804;55.762;38.084;2022-07-11T12:40:11;11.00;10.25;8.50
56495;PMS5003;42804;55.762;38.084;2022-07-11T12:42:42;10.25;10.25;8.00
56495;PMS5003;42804;55.762;38.084;2022-07-11T12:45:13;7.75;7.75;6.00
56495;PMS5003;42804;55.762;38.084;2022-07-11T12:47:44;9.25;9.25;8.00
56495;PMS5003;42804;55.762;38.084;2022-07-11T12:50:14;12.00;11.75;8.25
56495;PMS5003;42804;55.762;38.084;2022-07-11T12:52:44;13.00;13.00;9.00
56495;PMS5003;42804;55.762;38.084;2022-07-11T12:55:19;10.75;10.75;8.00
56495;PMS5003;42804;55.762;38.084;2022-07-11T12:58:00;11.00;11.00;9.00
56495;PMS5003;42804;55.762;38.084;2022-07-11T13:00:28;11.00;11.00;8.75
56495;PMS5003;42804;55.762;38.084;2022-07-11T13:02:59;8.50;7.50;4.75
56495;PMS5003;42804;55.762;38.084;2022-07-11T13:05:28;8.00;8.00;6.00
56495;PMS5003;42804;55.762;38.084;2022-07-11T13:07:57;10.00;9.25;6.25
56495;PMS5003;42804;55.762;38.084;2022-07-11T13:10:42;10.00;10.00;6.75
56495;PMS5003;42804;55.762;38.084;2022-07-11T13:13:32;5.75;5.75;4.25
56495;PMS5003;42804;55.762;38.084;2022-07-11T13:16:00;8.50;8.50;6.00
56495;PMS5003;42804;55.762;38.084;2022-07-11T13:18:30;10.00;9.75;7.00
56495;PMS5003;42804;55.762;38.084;2022-07-11T13:20:59;10.00;10.00;7.50
56495;PMS5003;42804;55.762;38.084;2022-07-11T13:23:28;11.25;11.25;8.50
56495;PMS5003;42804;55.762;38.084;2022-07-11T13:25:56;13.00;11.75;8.50
56495;PMS5003;42804;55.762;38.084;2022-07-11T13:28:24;10.00;9.25;7.50
56495;PMS5003;42804;55.762;38.084;2022-07-11T13:30:53;10.25;10.25;8.00
56495;PMS5003;42804;55.762;38.084;2022-07-11T13:33:42;12.25;10.25;8.25
56495;PMS5003;42804;55.762;38.084;2022-07-11T13:36:10;14.00;12.25;8.25
56495;PMS5003;42804;55.762;38.084;2022-07-11T13:38:38;8.25;8.25;7.25
56495;PMS5003;42804;55.762;38.084;2022-07-11T13:41:07;7.25;6.75;5.50
56495;PMS5003;42804;55.762;38.084;2022-07-11T13:43:42;7.00;7.00;5.00
56495;PMS5003;42804;55.762;38.084;2022-07-11T13:46:11;11.75;11.00;7.25
56495;PMS5003;42804;55.762;38.084;2022-07-11T13:48:39;7.75;7.75;6.25
56495;PMS5003;42804;55.762;38.084;2022-07-11T13:51:11;6.00;6.00;3.25
56495;PMS5003;42804;55.762;38.084;2022-07-11T13:53:39;12.00;11.25;8.00
56495;PMS5003;42804;55.762;38.084;2022-07-11T13:56:08;11.00;10.50;7.25
56495;PMS5003;42804;55.762;38.084;2022-07-11T13:58:37;12.75;12.50;9.00
56495;PMS5003;42804;55.762;38.084;2022-07-11T14:01:05;11.75;11.50;8.00